createdAt,value
2023-03-28T00:00:17.999Z,2.60
2023-03-28T00:02:46.900Z,2.90
2023-03-28T00:05:15.090Z,2.23
2023-03-28T00:07:41.809Z,2.13
2023-03-28T00:10:09.650Z,2.27
2023-03-28T00:12:36.584Z,3.30
2023-03-28T00:15:04.422Z,2.87
2023-03-28T00:17:31.525Z,2.40
2023-03-28T00:19:58.256Z,2.33
2023-03-28T00:22:24.918Z,2.23
2023-03-28T00:24:53.823Z,2.77
2023-03-28T00:27:20.592Z,2.93
2023-03-28T00:29:47.240Z,2.40
2023-03-28T00:32:13.907Z,3.07
2023-03-28T00:34:41.083Z,3.13
2023-03-28T00:37:10.808Z,3.20
2023-03-28T00:39:38.329Z,2.67
2023-03-28T00:42:05.064Z,2.23
2023-03-28T00:44:43.772Z,2.90
2023-03-28T00:47:28.595Z,2.53
2023-03-28T00:50:03.537Z,2.37
2023-03-28T00:52:39.546Z,2.50
2023-03-28T00:55:12.558Z,2.80
2023-03-28T00:57:40.307Z,2.97
2023-03-28T01:00:12.498Z,2.90
2023-03-28T01:02:50.836Z,2.70
2023-03-28T01:05:22.805Z,2.80
2023-03-28T01:07:53.890Z,2.80
2023-03-28T01:10:22.701Z,3.10
2023-03-28T01:12:51.585Z,2.63
2023-03-28T01:15:18.326Z,2.13
2023-03-28T01:17:48.742Z,2.63
2023-03-28T01:20:36.090Z,2.63
2023-03-28T01:23:24.812Z,2.00
2023-03-28T01:26:03.746Z,2.13
2023-03-28T01:29:00.185Z,2.97
2023-03-28T01:31:51.499Z,2.47
2023-03-28T01:34:39.208Z,1.97
2023-03-28T01:37:12.126Z,2.30
2023-03-28T01:40:06.775Z,2.30
2023-03-28T01:42:39.508Z,2.13
2023-03-28T01:45:34.255Z,2.70
2023-03-28T01:48:23.336Z,2.30
2023-03-28T01:50:54.338Z,2.70
2023-03-28T01:53:38.627Z,3.03
2023-03-28T01:56:13.452Z,2.97
2023-03-28T01:58:50.578Z,3.47
2023-03-28T02:01:27.539Z,2.70
2023-03-28T02:03:59.847Z,2.47
2023-03-28T02:06:29.703Z,3.57
2023-03-28T02:08:57.766Z,3.07
2023-03-28T02:11:27.807Z,2.63
2023-03-28T02:14:00.746Z,2.30
2023-03-28T02:16:30.855Z,3.40
2023-03-28T02:18:59.793Z,2.37
2023-03-28T02:21:39.683Z,2.33
2023-03-28T02:24:06.848Z,2.77
2023-03-28T02:26:37.270Z,2.50
2023-03-28T02:29:04.352Z,3.03
2023-03-28T02:31:32.906Z,2.53
2023-03-28T02:34:02.486Z,2.10
2023-03-28T02:36:35.509Z,2.63
2023-03-28T02:39:35.739Z,2.50
2023-03-28T02:42:20.502Z,2.47
2023-03-28T02:45:26.237Z,2.63
2023-03-28T02:48:05.390Z,2.63
2023-03-28T02:51:04.179Z,2.47
2023-03-28T02:53:49.830Z,2.50
2023-03-28T02:56:29.942Z,2.60
2023-03-28T02:59:02.280Z,2.93
2023-03-28T03:01:31.944Z,2.53
2023-03-28T03:03:58.905Z,2.57
2023-03-28T03:06:25.768Z,2.50
2023-03-28T03:08:52.446Z,2.83
2023-03-28T03:11:19.251Z,2.67
2023-03-28T03:13:46.010Z,3.03
2023-03-28T03:16:12.956Z,2.80
2023-03-28T03:18:39.694Z,2.87
2023-03-28T03:21:06.961Z,2.83
2023-03-28T03:23:33.554Z,2.63
2023-03-28T03:26:00.822Z,2.70
2023-03-28T03:28:27.898Z,3.00
2023-03-28T03:30:54.556Z,2.93
2023-03-28T03:33:21.551Z,2.47
2023-03-28T03:35:48.181Z,2.70
2023-03-28T03:38:14.852Z,2.97
2023-03-28T03:40:41.647Z,2.83
2023-03-28T03:43:08.465Z,2.53
2023-03-28T03:45:35.191Z,2.57
2023-03-28T03:48:01.858Z,2.97
2023-03-28T03:50:29.483Z,3.30
2023-03-28T03:52:58.357Z,2.87
2023-03-28T03:55:26.786Z,2.40
2023-03-28T03:57:53.913Z,2.90
2023-03-28T04:00:20.774Z,2.77
2023-03-28T04:02:48.488Z,2.70
2023-03-28T04:05:15.689Z,2.73
2023-03-28T04:07:42.491Z,3.20
2023-03-28T04:10:09.925Z,3.10
2023-03-28T04:12:36.535Z,2.97
2023-03-28T04:15:03.916Z,3.23
2023-03-28T04:17:35.002Z,3.30
2023-03-28T04:20:07.135Z,3.23
2023-03-28T04:22:36.071Z,3.10
2023-03-28T04:25:14.259Z,3.00
2023-03-28T04:27:46.638Z,3.27
2023-03-28T04:30:16.029Z,3.70
2023-03-28T04:32:42.653Z,3.60
2023-03-28T04:35:09.505Z,3.20
2023-03-28T04:37:37.908Z,2.60
2023-03-28T04:40:10.976Z,3.30
2023-03-28T04:42:38.582Z,3.33
2023-03-28T04:45:06.507Z,3.07
2023-03-28T04:47:33.494Z,3.17
2023-03-28T04:50:00.628Z,3.53
2023-03-28T04:52:29.571Z,3.37
2023-03-28T04:54:56.351Z,3.10
2023-03-28T04:57:23.124Z,3.30
2023-03-28T04:59:49.962Z,2.90
2023-03-28T05:02:16.962Z,3.53
2023-03-28T05:04:44.326Z,3.20
2023-03-28T05:07:11.191Z,3.60
2023-03-28T05:09:38.033Z,3.30
2023-03-28T05:12:04.971Z,3.60
2023-03-28T05:14:32.053Z,3.50
2023-03-28T05:16:58.686Z,3.97
2023-03-28T05:19:25.449Z,3.97
2023-03-28T05:21:52.110Z,4.87
2023-03-28T05:24:18.696Z,3.80
2023-03-28T05:26:47.994Z,4.10
2023-03-28T05:29:14.662Z,3.80
2023-03-28T05:31:41.469Z,3.83
2023-03-28T05:34:08.131Z,3.90
2023-03-28T05:36:34.741Z,3.90
2023-03-28T05:39:02.135Z,3.87
2023-03-28T05:41:28.736Z,3.93
2023-03-28T05:43:55.442Z,3.60
2023-03-28T05:46:22.099Z,3.70
2023-03-28T05:48:49.611Z,4.57
2023-03-28T05:51:17.150Z,4.07
2023-03-28T05:53:46.288Z,4.30
2023-03-28T05:56:15.196Z,4.27
2023-03-28T05:58:41.802Z,4.07
2023-03-28T06:01:08.994Z,3.87
2023-03-28T06:03:39.974Z,4.30
2023-03-28T06:06:07.273Z,4.40
2023-03-28T06:08:33.923Z,4.10
2023-03-28T06:11:04.750Z,3.90
2023-03-28T06:13:31.421Z,4.23
2023-03-28T06:15:58.044Z,3.90
2023-03-28T06:18:24.760Z,3.83
2023-03-28T06:20:51.412Z,4.10
2023-03-28T06:23:18.053Z,3.70
2023-03-28T06:25:44.860Z,4.00
2023-03-28T06:28:11.928Z,3.90
2023-03-28T06:30:40.211Z,4.10
2023-03-28T06:33:07.586Z,4.53
2023-03-28T06:35:34.664Z,4.40
2023-03-28T06:38:01.345Z,4.10
2023-03-28T06:40:30.552Z,4.10
2023-03-28T06:42:58.015Z,3.67
2023-03-28T06:45:24.715Z,4.30
2023-03-28T06:47:52.258Z,4.10
2023-03-28T06:50:19.040Z,4.20
2023-03-28T06:52:46.827Z,4.63
2023-03-28T06:55:13.498Z,4.47
2023-03-28T06:57:40.145Z,4.30
2023-03-28T07:00:07.544Z,4.40
2023-03-28T07:02:34.524Z,4.80
2023-03-28T07:05:01.306Z,5.17
2023-03-28T07:07:27.933Z,4.40
2023-03-28T07:09:54.875Z,4.30
2023-03-28T07:12:23.795Z,5.10
2023-03-28T07:14:50.505Z,4.70
2023-03-28T07:17:17.173Z,4.47
2023-03-28T07:19:45.603Z,4.77
2023-03-28T07:22:12.380Z,4.40
2023-03-28T07:24:39.080Z,4.50
2023-03-28T07:29:35.535Z,5.20
2023-03-28T07:32:02.223Z,5.07
2023-03-28T07:34:28.875Z,5.00
2023-03-28T07:36:56.186Z,5.73
2023-03-28T07:39:22.985Z,5.47
2023-03-28T07:41:49.575Z,5.63
2023-03-28T07:44:16.472Z,5.40
2023-03-28T07:46:43.396Z,4.73
2023-03-28T07:49:10.803Z,6.07
2023-03-28T07:51:37.624Z,5.03
2023-03-28T07:54:05.244Z,5.57
2023-03-28T07:56:31.893Z,5.20
2023-03-28T07:58:58.560Z,5.97
2023-03-28T08:01:25.339Z,6.43
2023-03-28T08:03:52.079Z,6.23
2023-03-28T08:06:31.599Z,6.43
2023-03-28T08:08:59.088Z,5.37
2023-03-28T08:11:27.248Z,5.70
2023-03-28T08:13:54.119Z,6.37
2023-03-28T08:16:21.241Z,6.20
2023-03-28T08:18:57.071Z,5.83
2023-03-28T08:21:35.406Z,6.07
2023-03-28T08:24:03.442Z,7.37
2023-03-28T08:26:30.708Z,8.63
2023-03-28T08:29:00.848Z,8.40
2023-03-28T08:31:29.003Z,7.40
2023-03-28T08:33:56.006Z,6.57
2023-03-28T08:36:24.806Z,5.50
2023-03-28T08:38:54.602Z,6.63
2023-03-28T08:41:38.354Z,7.03
2023-03-28T08:44:20.871Z,6.70
2023-03-28T08:46:53.519Z,6.07
2023-03-28T08:49:21.165Z,6.63
2023-03-28T08:51:59.406Z,5.43
2023-03-28T08:54:34.259Z,5.40
2023-03-28T08:57:05.832Z,5.67
2023-03-28T09:00:02.735Z,5.63
2023-03-28T09:02:30.009Z,4.97
2023-03-28T09:05:11.963Z,4.63
2023-03-28T09:08:03.632Z,5.07
2023-03-28T09:10:43.132Z,4.93
2023-03-28T09:13:53.043Z,4.53
2023-03-28T09:16:34.724Z,4.67
2023-03-28T09:19:07.296Z,4.57
2023-03-28T09:21:46.231Z,4.00
2023-03-28T09:24:28.750Z,3.30
2023-03-28T09:27:14.053Z,3.47
2023-03-28T09:29:43.301Z,3.00
2023-03-28T09:32:22.309Z,2.77
2023-03-28T09:34:50.879Z,2.37
2023-03-28T09:37:40.528Z,3.20
2023-03-28T09:40:19.389Z,2.63
2023-03-28T09:42:52.563Z,2.00
2023-03-28T09:45:33.884Z,2.30
2023-03-28T09:48:00.962Z,2.10
2023-03-28T09:50:28.074Z,2.03
2023-03-28T09:52:57.724Z,1.90
2023-03-28T09:55:27.862Z,1.80
2023-03-28T09:58:03.327Z,2.17
2023-03-28T10:00:34.970Z,2.30
2023-03-28T10:03:01.934Z,2.73
2023-03-28T10:05:31.934Z,1.83
2023-03-28T10:08:06.201Z,1.73
2023-03-28T10:10:32.868Z,1.90
2023-03-28T10:13:04.596Z,1.93
2023-03-28T10:15:34.704Z,1.77
2023-03-28T10:18:04.109Z,2.00
2023-03-28T10:20:36.732Z,2.10
2023-03-28T10:23:04.815Z,2.10
2023-03-28T10:25:40.736Z,2.57
2023-03-28T10:28:13.192Z,2.30
2023-03-28T10:30:40.806Z,2.00
2023-03-28T10:33:16.356Z,2.00
2023-03-28T10:35:48.266Z,1.50
2023-03-28T10:38:18.307Z,1.70
2023-03-28T10:40:53.800Z,1.60
2023-03-28T10:43:20.504Z,1.40
2023-03-28T10:45:51.342Z,1.53
2023-03-28T10:48:26.082Z,2.07
2023-03-28T10:50:58.803Z,1.83
2023-03-28T10:53:52.988Z,1.90
2023-03-28T10:56:38.789Z,1.40
2023-03-28T10:59:27.316Z,1.77
2023-03-28T11:02:09.074Z,1.97
2023-03-28T11:05:01.907Z,1.27
2023-03-28T11:07:45.250Z,1.50
2023-03-28T11:10:18.976Z,1.33
2023-03-28T11:13:02.754Z,1.20
2023-03-28T11:15:38.230Z,1.20
2023-03-28T11:18:20.006Z,1.30
2023-03-28T11:21:24.962Z,1.20
2023-03-28T11:24:12.254Z,1.20
2023-03-28T11:26:44.701Z,1.50
2023-03-28T11:29:42.476Z,1.40
2023-03-28T11:32:29.465Z,1.60
2023-03-28T11:35:02.209Z,1.53
2023-03-28T11:37:36.390Z,1.63
2023-03-28T11:40:27.839Z,1.20
2023-03-28T11:43:03.696Z,1.40
2023-03-28T11:45:53.568Z,1.37
2023-03-28T11:48:34.001Z,1.77
2023-03-28T11:51:09.834Z,1.37
2023-03-28T11:53:43.771Z,1.53
2023-03-28T11:56:51.199Z,1.83
2023-03-28T11:59:29.419Z,1.80
2023-03-28T12:02:30.306Z,1.27
2023-03-28T12:05:18.622Z,1.70
2023-03-28T12:08:09.642Z,2.00
2023-03-28T12:10:38.581Z,1.93
2023-03-28T12:13:21.685Z,1.53
2023-03-28T12:15:53.380Z,2.27
2023-03-28T12:18:26.089Z,1.80
2023-03-28T12:21:03.793Z,1.57
2023-03-28T12:23:38.175Z,1.70
2023-03-28T12:26:21.467Z,1.60
2023-03-28T12:28:58.688Z,1.73
2023-03-28T12:31:47.953Z,2.10
2023-03-28T12:34:20.087Z,1.77
2023-03-28T12:36:59.284Z,1.50
2023-03-28T12:39:44.348Z,1.47
2023-03-28T12:42:15.523Z,1.77
2023-03-28T12:44:52.573Z,1.50
2023-03-28T12:47:24.489Z,1.60
2023-03-28T12:50:21.979Z,1.60
2023-03-28T12:52:50.711Z,1.30
2023-03-28T12:55:31.560Z,1.40
2023-03-28T12:58:21.402Z,1.70
2023-03-28T13:00:51.341Z,1.63
2023-03-28T13:03:37.134Z,1.70
2023-03-28T13:06:25.764Z,1.60
2023-03-28T13:08:58.070Z,1.50
2023-03-28T13:11:31.171Z,1.60
2023-03-28T13:14:28.776Z,1.20
2023-03-28T13:17:15.806Z,1.17
2023-03-28T13:19:43.737Z,1.23
2023-03-28T13:22:49.180Z,1.50
2023-03-28T13:25:28.325Z,1.30
2023-03-28T13:27:56.411Z,1.30
2023-03-28T13:30:28.987Z,1.37
2023-03-28T13:32:59.291Z,1.37
2023-03-28T13:35:42.688Z,1.50
2023-03-28T13:38:24.504Z,1.80
2023-03-28T13:40:55.908Z,1.40
2023-03-28T13:43:43.721Z,1.60
2023-03-28T13:46:31.076Z,1.43
2023-03-28T13:49:07.328Z,1.93
2023-03-28T13:51:52.326Z,1.53
2023-03-28T13:54:20.004Z,1.50
2023-03-28T13:56:48.985Z,1.73
2023-03-28T13:59:18.718Z,1.90
2023-03-28T14:01:49.274Z,1.60
2023-03-28T14:04:26.025Z,1.90
2023-03-28T14:06:54.199Z,1.63
2023-03-28T14:09:30.935Z,1.67
2023-03-28T14:12:08.574Z,1.83
2023-03-28T14:14:41.908Z,1.60
2023-03-28T14:17:15.113Z,1.60
2023-03-28T14:19:46.166Z,2.07
2023-03-28T14:22:19.063Z,1.47
2023-03-28T14:24:49.489Z,1.30
2023-03-28T14:27:31.088Z,1.60
2023-03-28T14:30:01.138Z,2.00
2023-03-28T14:32:33.123Z,1.77
2023-03-28T14:35:18.828Z,1.40
2023-03-28T14:37:56.591Z,2.00
2023-03-28T14:40:23.208Z,1.60
2023-03-28T14:42:55.968Z,1.70
2023-03-28T14:45:25.935Z,1.80
2023-03-28T14:47:52.839Z,1.60
2023-03-28T14:50:22.155Z,1.43
2023-03-28T14:52:49.113Z,1.77
2023-03-28T14:55:22.899Z,1.60
2023-03-28T14:57:52.345Z,1.80
2023-03-28T15:00:23.665Z,1.53
2023-03-28T15:02:52.501Z,1.90
2023-03-28T15:05:22.341Z,1.53
2023-03-28T15:07:57.432Z,1.30
2023-03-28T15:10:25.847Z,1.50
2023-03-28T15:13:02.035Z,1.80
2023-03-28T15:15:35.900Z,1.77
2023-03-28T15:18:09.316Z,1.63
2023-03-28T15:20:38.521Z,1.50
2023-03-28T15:23:15.791Z,1.40
2023-03-28T15:25:44.279Z,1.90
2023-03-28T15:28:17.139Z,1.70
2023-03-28T15:30:46.108Z,1.90
2023-03-28T15:33:18.837Z,1.73
2023-03-28T15:35:46.041Z,1.50
2023-03-28T15:38:12.628Z,1.83
2023-03-28T15:40:42.020Z,1.70
2023-03-28T15:43:34.925Z,1.60
2023-03-28T15:46:03.610Z,2.00
2023-03-28T15:48:35.135Z,1.60
2023-03-28T15:51:16.454Z,2.20
2023-03-28T15:53:46.763Z,1.90
2023-03-28T15:56:31.546Z,2.00
2023-03-28T15:59:04.147Z,1.87
2023-03-28T16:01:33.553Z,1.97
2023-03-28T16:04:20.972Z,2.20
2023-03-28T16:06:48.341Z,1.50
2023-03-28T16:09:25.599Z,1.67
2023-03-28T16:12:04.054Z,1.90
2023-03-28T16:14:30.988Z,1.70
2023-03-28T16:16:57.783Z,1.70
2023-03-28T16:19:28.673Z,1.30
2023-03-28T16:21:56.289Z,1.60
2023-03-28T16:24:24.021Z,1.50
2023-03-28T16:26:50.659Z,1.73
2023-03-28T16:29:17.357Z,1.67
2023-03-28T16:31:45.688Z,1.87
2023-03-28T16:34:13.011Z,1.93
2023-03-28T16:36:39.808Z,1.77
2023-03-28T16:39:08.563Z,1.87
2023-03-28T16:41:35.879Z,2.13
2023-03-28T16:44:02.901Z,1.30
2023-03-28T16:46:29.991Z,1.20
2023-03-28T16:48:57.017Z,1.90
2023-03-28T16:51:24.667Z,1.60
2023-03-28T16:53:51.373Z,1.67
2023-03-28T16:56:18.654Z,1.60
2023-03-28T16:58:45.477Z,1.80
2023-03-28T17:01:19.122Z,1.30
2023-03-28T17:03:47.278Z,1.70
2023-03-28T17:06:15.038Z,1.73
2023-03-28T17:08:42.000Z,1.47
2023-03-28T17:11:12.119Z,1.90
2023-03-28T17:13:40.569Z,1.70
2023-03-28T17:16:09.096Z,1.63
2023-03-28T17:18:37.009Z,1.30
2023-03-28T17:21:09.324Z,1.70
2023-03-28T17:23:37.914Z,1.70
2023-03-28T17:26:07.410Z,1.70
2023-03-28T17:28:39.054Z,1.57
2023-03-28T17:31:08.197Z,1.80
2023-03-28T17:33:35.437Z,1.60
2023-03-28T17:36:13.474Z,1.77
2023-03-28T17:38:40.352Z,1.73
2023-03-28T17:41:08.371Z,1.93
2023-03-28T17:43:35.090Z,1.70
2023-03-28T17:46:01.920Z,1.80
2023-03-28T17:48:28.840Z,2.00
2023-03-28T17:50:56.219Z,1.73
2023-03-28T17:53:22.929Z,1.83
2023-03-28T17:55:50.030Z,2.10
2023-03-28T17:58:16.772Z,1.80
2023-03-28T18:00:43.625Z,2.17
2023-03-28T18:03:10.603Z,1.80
2023-03-28T18:05:37.425Z,2.40
2023-03-28T18:08:04.804Z,2.20
2023-03-28T18:10:31.926Z,2.20
2023-03-28T18:12:58.847Z,2.03
2023-03-28T18:15:25.706Z,2.40
2023-03-28T18:17:52.653Z,2.00
2023-03-28T18:20:19.500Z,1.90
2023-03-28T18:22:46.467Z,3.07
2023-03-28T18:25:13.148Z,2.27
2023-03-28T18:27:39.857Z,2.83
2023-03-28T18:30:09.428Z,3.83
2023-03-28T18:32:36.913Z,3.10
2023-03-28T18:35:07.454Z,2.30
2023-03-28T18:37:36.840Z,2.50
2023-03-28T18:40:07.446Z,2.70
2023-03-28T18:42:35.123Z,2.30
2023-03-28T18:45:01.760Z,1.70
2023-03-28T18:47:29.100Z,3.00
2023-03-28T18:49:56.268Z,2.00
2023-03-28T18:52:23.322Z,2.57
2023-03-28T18:54:50.289Z,2.37
2023-03-28T18:57:17.539Z,2.67
2023-03-28T18:59:44.585Z,2.90
2023-03-28T19:02:14.119Z,3.00
2023-03-28T19:04:41.154Z,3.30
2023-03-28T19:07:08.775Z,3.07
2023-03-28T19:09:35.531Z,2.40
2023-03-28T19:12:02.751Z,2.23
2023-03-28T19:14:29.472Z,2.40
2023-03-28T19:16:56.234Z,2.00
2023-03-28T19:19:24.128Z,2.30
2023-03-28T19:21:52.030Z,2.23
2023-03-28T19:24:21.409Z,2.40
2023-03-28T19:26:55.091Z,2.50
2023-03-28T19:29:22.910Z,2.10
2023-03-28T19:31:52.016Z,2.50
2023-03-28T19:34:20.565Z,1.87
2023-03-28T19:36:47.854Z,1.80
2023-03-28T19:39:14.943Z,2.00
2023-03-28T19:41:41.970Z,2.33
2023-03-28T19:44:08.818Z,2.00
2023-03-28T19:46:40.448Z,1.90
2023-03-28T19:49:07.447Z,2.47
2023-03-28T19:51:34.939Z,2.13
2023-03-28T19:54:01.989Z,2.80
2023-03-28T19:56:29.230Z,2.77
2023-03-28T19:58:56.293Z,2.17
2023-03-28T20:01:23.734Z,3.17
2023-03-28T20:03:53.460Z,3.60
2023-03-28T20:06:22.669Z,3.57
2023-03-28T20:08:50.929Z,3.13
2023-03-28T20:11:17.903Z,3.10
2023-03-28T20:13:45.066Z,2.37
2023-03-28T20:16:13.247Z,2.50
2023-03-28T20:18:40.138Z,2.80
2023-03-28T20:21:10.626Z,3.10
2023-03-28T20:23:37.402Z,2.50
2023-03-28T20:26:18.558Z,2.57
2023-03-28T20:28:49.564Z,2.50
2023-03-28T20:31:17.657Z,2.20
2023-03-28T20:33:45.200Z,2.97
2023-03-28T20:36:12.403Z,2.27
2023-03-28T20:38:39.955Z,2.00
2023-03-28T20:41:17.880Z,2.03
2023-03-28T20:43:47.371Z,2.73
2023-03-28T20:46:19.093Z,2.23
2023-03-28T20:48:52.625Z,2.07
2023-03-28T20:51:23.294Z,2.40
2023-03-28T20:53:55.254Z,2.50
2023-03-28T20:56:22.787Z,2.50
2023-03-28T20:58:51.073Z,2.33
2023-03-28T21:01:18.830Z,2.40
2023-03-28T21:03:49.971Z,2.37
2023-03-28T21:06:25.688Z,2.50
2023-03-28T21:08:55.128Z,2.30
2023-03-28T21:11:26.463Z,2.07
2023-03-28T21:13:54.890Z,2.97
2023-03-28T21:16:22.358Z,2.47
2023-03-28T21:18:49.838Z,2.10
2023-03-28T21:21:19.216Z,1.80
2023-03-28T21:23:46.970Z,2.60
2023-03-28T21:26:19.473Z,2.13
2023-03-28T21:28:47.069Z,2.37
2023-03-28T21:31:18.464Z,2.73
2023-03-28T21:33:45.924Z,2.50
2023-03-28T21:36:16.328Z,2.90
2023-03-28T21:38:44.684Z,2.93
2023-03-28T21:41:12.332Z,3.27
2023-03-28T21:43:39.380Z,3.10
2023-03-28T21:46:07.841Z,3.50
2023-03-28T21:48:35.814Z,2.80
2023-03-28T21:51:03.549Z,2.77
2023-03-28T21:53:33.058Z,3.27
2023-03-28T21:55:59.942Z,3.07
2023-03-28T21:58:30.043Z,2.97
2023-03-28T22:00:56.766Z,2.83
2023-03-28T22:03:24.508Z,3.10
2023-03-28T22:05:52.779Z,2.60
2023-03-28T22:08:22.504Z,3.00
2023-03-28T22:10:55.778Z,3.00
2023-03-28T22:13:24.049Z,3.20
2023-03-28T22:15:52.982Z,3.03
2023-03-28T22:18:20.797Z,2.90
2023-03-28T22:20:53.511Z,3.30
2023-03-28T22:23:24.769Z,2.97
2023-03-28T22:25:53.161Z,3.00
2023-03-28T22:28:24.755Z,3.23
2023-03-28T22:30:55.874Z,3.33
2023-03-28T22:33:23.769Z,3.03
2023-03-28T22:35:50.365Z,3.00
2023-03-28T22:38:17.577Z,3.00
2023-03-28T22:40:44.368Z,2.83
2023-03-28T22:43:11.340Z,2.90
2023-03-28T22:45:40.218Z,2.70
2023-03-28T22:48:14.628Z,3.33
2023-03-28T22:50:44.340Z,3.17
2023-03-28T22:53:12.578Z,3.03
2023-03-28T22:55:42.525Z,3.63
2023-03-28T22:58:09.648Z,3.20
2023-03-28T23:00:36.470Z,3.47
2023-03-28T23:03:03.412Z,3.00
2023-03-28T23:05:30.248Z,3.43
2023-03-28T23:07:57.951Z,3.10
2023-03-28T23:10:24.969Z,3.77
2023-03-28T23:12:52.149Z,3.37
2023-03-28T23:15:19.167Z,4.20
2023-03-28T23:17:46.206Z,3.43
2023-03-28T23:20:15.010Z,3.77
2023-03-28T23:22:43.308Z,3.47
2023-03-28T23:25:13.040Z,3.70
2023-03-28T23:27:40.698Z,3.43
2023-03-28T23:30:09.198Z,3.63
2023-03-28T23:32:36.968Z,3.67
2023-03-28T23:35:04.510Z,3.63
2023-03-28T23:37:31.249Z,3.70
2023-03-28T23:39:58.410Z,3.37
2023-03-28T23:42:25.380Z,3.40
2023-03-28T23:44:52.993Z,3.67
2023-03-28T23:47:20.555Z,3.50
2023-03-28T23:49:47.900Z,3.00
2023-03-28T23:52:16.770Z,2.93
2023-03-28T23:54:44.331Z,3.17
2023-03-28T23:57:11.809Z,3.23
2023-03-28T23:59:39.310Z,3.50
